Weather at Le Havre Octeville Airport

Public forecast

Using degrees Celsius for public forecast. Weather courtesy of forecast.io.

Current aviation weather report (METAR) for Le Havre Octeville Airport

Retrieved 2021/12/03 09:30 UTC (9 minutes ago):

LFOH 030930Z AUTO 21015KT 9999 OVC009 05/04 Q1009 TEMPO 0600 DZ FG VV/// BECMG 21015G25KT

Aviation forecast (TAF) for Le Havre Octeville Airport

Retrieved 2021/12/03 06:57 UTC (3 hours ago):

TAF LFOH 030500Z 0306/0406 21015G25KT 9999 RA BKN010 OVC020 BECMG 0310/0312 4000 RA BR OVC004 TEMPO 0312/0320 0600 DZ FG VV/// BECMG 0321/0323 25025G35KT 9999 NSW BECMG 0402/0404 31020G30KT SCT015 BKN030